Time;durP1;ratioP1;P1;durP2;ratioP2;P2;SDS_P1;SDS_P2;PMS_P1;PMS_P2;Temp;Humidity;BMP_temperature;BMP_pressure;BME280_temperature;BME280_humidity;BME280_pressure;Samples;Min_cycle;Max_cycle;Signal;HPM_P1;HPM_P2
2021/01/24 00:03:36;;;;;;;98.62;38.60;;;;;;;2.86;81.93;97098.15;4360833;81;21202;-90
2021/01/24 00:09:38;;;;;;;127.62;51.50;;;;;;;2.74;82.38;97100.33;4359170;80;21191;-89
2021/01/24 00:15:39;;;;;;;102.27;40.95;;;;;;;2.70;82.18;97092.17;4360412;80;21174;-90
2021/01/24 00:21:41;;;;;;;96.87;38.33;;;;;;;2.69;82.28;97074.39;4366385;80;21746;-90
2021/01/24 00:27:44;;;;;;;100.65;39.63;;;;;;;2.70;82.39;97072.47;4376782;80;21217;-89
2021/01/24 00:33:45;;;;;;;102.12;40.65;;;;;;;2.58;82.63;97061.37;4380386;80;21158;-89
2021/01/24 00:39:46;;;;;;;86.45;36.73;;;;;;;2.68;82.87;97055.28;4385882;80;21551;-91
2021/01/24 00:45:48;;;;;;;79.70;34.58;;;;;;;2.61;82.55;97051.73;4382872;80;21167;-90
2021/01/24 00:51:50;;;;;;;85.90;36.98;;;;;;;2.48;82.58;97053.13;4383901;80;21591;-89
2021/01/24 00:57:51;;;;;;;82.50;36.68;;;;;;;2.44;83.09;97036.11;4383027;80;21177;-89
2021/01/24 01:03:53;;;;;;;86.12;35.83;;;;;;;2.57;83.34;97040.88;4390357;80;21134;-90
2021/01/24 01:09:54;;;;;;;81.35;35.45;;;;;;;2.48;83.17;97026.11;4384794;80;21149;-89
2021/01/24 01:15:55;;;;;;;79.17;34.27;;;;;;;2.58;83.41;97020.06;4384303;80;21286;-89
2021/01/24 01:21:57;;;;;;;59.83;30.43;;;;;;;2.67;83.49;97019.19;4389210;80;21145;-89
2021/01/24 01:27:58;;;;;;;65.62;33.40;;;;;;;2.60;83.22;97014.48;4388298;80;21784;-91
2021/01/24 01:34:01;;;;;;;72.35;32.42;;;;;;;2.53;83.38;97006.31;4377524;80;21149;-88
2021/01/24 01:40:05;;;;;;;64.25;30.60;;;;;;;2.54;83.81;97007.08;4385580;80;21181;-90
2021/01/24 01:46:07;;;;;;;70.57;31.23;;;;;;;2.52;83.41;97012.09;4386284;80;21147;-89
2021/01/24 01:52:08;;;;;;;67.78;32.05;;;;;;;2.51;83.57;96997.80;4385138;80;21220;-89
2021/01/24 01:58:10;;;;;;;85.45;38.40;;;;;;;2.51;83.70;97000.50;4376252;80;21149;-90
2021/01/24 02:04:46;;;;;;;73.52;32.03;;;;;;;2.49;84.04;96995.28;4282011;81;21177;-90
2021/01/24 02:10:53;;;;;;;47.20;25.60;;;;;;;2.44;83.60;96991.55;4236939;83;21697;-90
2021/01/24 02:16:57;;;;;;;75.28;36.08;;;;;;;2.41;84.09;96992.30;4253062;82;21686;-89
2021/01/24 02:23:01;;;;;;;71.35;35.28;;;;;;;2.49;84.06;96985.83;4239611;82;21162;-89
2021/01/24 02:29:22;;;;;;;69.77;33.20;;;;;;;2.47;84.19;96985.41;4239417;83;21600;-90
2021/01/24 02:35:29;;;;;;;63.73;30.68;;;;;;;2.50;84.36;96986.02;4300056;82;21187;-90
2021/01/24 02:41:31;;;;;;;63.87;31.10;;;;;;;2.53;83.80;96982.58;4301131;81;21636;-89
2021/01/24 02:47:34;;;;;;;83.72;36.88;;;;;;;2.55;84.20;96987.80;4305551;81;21165;-89
2021/01/24 02:53:37;;;;;;;78.40;36.55;;;;;;;2.37;84.04;96977.40;4303364;81;21183;-88
2021/01/24 02:59:39;;;;;;;68.85;32.60;;;;;;;2.28;84.17;96959.94;4302320;81;21343;-89
2021/01/24 03:05:41;;;;;;;69.03;32.73;;;;;;;2.29;84.42;96962.83;4298151;81;21286;-89
2021/01/24 03:11:47;;;;;;;66.75;31.97;;;;;;;2.28;84.29;96963.98;4298569;82;21175;-89
2021/01/24 03:17:49;;;;;;;65.47;29.63;;;;;;;2.29;84.55;96954.73;4306632;81;21189;-89
2021/01/24 03:23:52;;;;;;;58.60;27.87;;;;;;;2.24;84.49;96942.34;4319119;81;21283;-88
2021/01/24 03:29:54;;;;;;;59.73;27.85;;;;;;;2.17;84.74;96938.23;4309410;81;21160;-90
2021/01/24 03:35:56;;;;;;;53.70;26.42;;;;;;;2.20;84.56;96927.26;4318953;81;21165;-89
2021/01/24 03:41:57;;;;;;;53.98;26.02;;;;;;;2.09;84.57;96920.41;4310923;81;21210;-89
2021/01/24 03:47:58;;;;;;;63.65;28.90;;;;;;;2.12;85.06;96914.83;4315619;81;21177;-89
2021/01/24 03:54:00;;;;;;;61.92;29.50;;;;;;;2.08;84.59;96913.47;4314788;81;21177;-90
2021/01/24 04:00:06;;;;;;;61.45;28.17;;;;;;;2.12;85.04;96911.56;4311211;81;21190;-89
2021/01/24 04:06:10;;;;;;;65.97;29.98;;;;;;;2.11;85.12;96903.28;4312505;81;21173;-88
2021/01/24 04:12:11;;;;;;;63.25;27.15;;;;;;;2.00;84.87;96894.86;4312714;81;21327;-88
2021/01/24 04:18:13;;;;;;;57.67;28.20;;;;;;;2.00;85.22;96890.24;4292526;81;25742;-90
2021/01/24 04:24:15;;;;;;;62.25;29.98;;;;;;;2.01;85.26;96894.48;4157340;84;21219;-89
2021/01/24 04:30:17;;;;;;;65.78;31.27;;;;;;;1.89;84.99;96883.95;4273369;81;21307;-90
2021/01/24 04:36:19;;;;;;;59.48;27.45;;;;;;;1.84;85.21;96875.39;4270156;81;21167;-89
2021/01/24 04:42:20;;;;;;;63.33;31.85;;;;;;;1.78;85.10;96868.22;4272009;81;21310;-88
2021/01/24 04:48:23;;;;;;;64.45;32.03;;;;;;;1.79;85.35;96851.44;4271456;81;21201;-89
2021/01/24 04:54:26;;;;;;;63.33;30.60;;;;;;;1.83;85.66;96865.77;4274679;81;21372;-88
2021/01/24 05:00:28;;;;;;;95.87;42.67;;;;;;;1.78;85.40;96852.03;4269209;81;21172;-89
2021/01/24 05:06:29;;;;;;;65.95;31.60;;;;;;;1.67;85.54;96832.26;4276643;81;22519;-89
2021/01/24 05:12:30;;;;;;;68.20;31.77;;;;;;;1.67;85.87;96847.66;4277965;81;21183;-89
2021/01/24 05:18:33;;;;;;;77.25;35.88;;;;;;;1.67;85.88;96847.66;4267677;82;21694;-89
2021/01/24 05:24:35;;;;;;;72.30;36.45;;;;;;;1.57;86.32;96855.83;4255665;82;21189;-89
2021/01/24 05:30:36;;;;;;;66.17;33.75;;;;;;;1.51;86.03;96841.91;4253035;83;21200;-90
2021/01/24 05:36:42;;;;;;;77.42;36.33;;;;;;;1.42;86.41;96840.07;4259448;82;21298;-88
2021/01/24 05:42:45;;;;;;;73.78;34.33;;;;;;;1.39;86.42;96825.19;4262885;82;21617;-89
2021/01/24 05:48:49;;;;;;;60.00;29.72;;;;;;;1.41;86.46;96799.41;4261622;82;21156;-90
2021/01/24 05:54:51;;;;;;;61.08;31.02;;;;;;;1.50;87.11;96834.19;4256783;82;21202;-89
2021/01/24 06:00:53;;;;;;;66.57;31.68;;;;;;;1.50;87.11;96834.19;4254380;82;21207;-90
2021/01/24 06:06:55;;;;;;;80.47;38.55;;;;;;;1.41;86.74;96815.59;4261462;83;21316;-90
2021/01/24 06:12:59;;;;;;;55.17;31.37;;;;;;;1.33;87.16;96823.37;4225767;83;21187;-90
2021/01/24 06:19:06;;;;;;;69.03;34.03;;;;;;;1.43;87.40;96821.39;4256413;82;21208;-90
2021/01/24 06:25:22;;;;;;;65.85;34.55;;;;;;;1.58;87.54;96816.95;4279859;81;21636;-90
2021/01/24 06:31:23;;;;;;;65.40;33.45;;;;;;;1.58;87.54;96816.95;4274048;81;21157;-90
2021/01/24 06:37:28;;;;;;;60.33;32.03;;;;;;;1.62;87.61;96809.66;4271502;81;21148;-91
2021/01/24 06:43:50;;;;;;;63.90;33.08;;;;;;;1.64;87.46;96809.48;4264537;81;21176;-89
2021/01/24 06:49:52;;;;;;;69.35;34.00;;;;;;;1.65;87.50;96802.17;4268646;81;21197;-91
2021/01/24 06:55:58;;;;;;;73.60;37.23;;;;;;;1.68;87.55;96810.13;4259261;82;21171;-91
2021/01/24 07:02:26;;;;;;;72.67;36.70;;;;;;;1.69;87.67;96825.15;4251903;82;21213;-91
2021/01/24 07:08:31;;;;;;;73.17;35.45;;;;;;;1.75;87.56;96812.31;4264431;83;21623;-92
2021/01/24 07:14:41;;;;;;;69.25;35.80;;;;;;;1.76;87.79;96817.90;4253331;82;21183;-91
2021/01/24 07:20:43;;;;;;;69.40;33.88;;;;;;;1.70;87.61;96811.29;4261811;82;21154;-91
2021/01/24 07:26:46;;;;;;;62.98;33.65;;;;;;;1.72;87.87;96816.31;4259733;83;21914;-91
2021/01/24 07:32:49;;;;;;;70.50;35.92;;;;;;;1.79;87.65;96819.86;4262103;82;21177;-91
2021/01/24 07:38:50;;;;;;;67.80;35.33;;;;;;;1.78;87.86;96805.39;4254303;82;21193;-91
2021/01/24 07:44:52;;;;;;;58.60;32.17;;;;;;;1.77;87.89;96805.20;4256186;82;21174;-91
2021/01/24 07:50:54;;;;;;;64.95;33.00;;;;;;;1.85;87.97;96821.07;4252623;82;21704;-91
2021/01/24 07:56:55;;;;;;;63.40;31.77;;;;;;;1.80;88.20;96826.82;4259397;82;21222;-91
2021/01/24 08:02:58;;;;;;;76.22;39.63;;;;;;;1.76;88.22;96866.45;4259658;82;21167;-91
2021/01/24 08:09:00;;;;;;;62.03;33.33;;;;;;;1.78;88.15;96879.02;4256658;82;21606;-91
2021/01/24 08:15:03;;;;;;;77.50;42.15;;;;;;;1.85;88.24;96893.16;4263767;83;21172;-92
2021/01/24 08:21:05;;;;;;;74.75;40.38;;;;;;;1.92;88.40;96895.36;4262712;82;21172;-92
2021/01/24 08:27:08;;;;;;;78.25;43.40;;;;;;;1.97;88.37;96895.03;4259476;82;21163;-91
2021/01/24 08:33:20;;;;;;;83.45;40.92;;;;;;;2.01;88.30;96900.44;4231258;82;32130;-90
2021/01/24 08:39:23;;;;;;;71.10;39.18;;;;;;;2.08;88.14;96914.81;4105268;85;21191;-92
2021/01/24 08:45:27;;;;;;;71.28;40.17;;;;;;;2.05;88.37;96919.58;4074916;85;21625;-92
2021/01/24 08:51:48;;;;;;;66.22;36.70;;;;;;;2.06;88.42;96913.61;4038066;87;21354;-90
2021/01/24 08:57:50;;;;;;;61.85;33.33;;;;;;;2.09;88.57;96918.27;4146575;84;22543;-91
2021/01/24 09:03:51;;;;;;;63.68;33.60;;;;;;;2.16;88.62;96926.45;4197552;83;21186;-90
2021/01/24 09:09:54;;;;;;;60.08;32.33;;;;;;;2.28;88.72;96918.88;4197589;83;21683;-90
2021/01/24 09:15:59;;;;;;;63.95;32.00;;;;;;;2.36;88.77;96925.12;4144420;84;77464;-89
2021/01/24 09:29:08;;;;;;;39.13;19.85;;;;;;;2.59;88.71;96930.55;4120577;85;21195;-89
2021/01/24 09:35:09;;;;;;;36.98;18.23;;;;;;;2.85;88.86;96937.73;4103503;85;21179;-90
2021/01/24 09:41:11;;;;;;;35.50;16.35;;;;;;;2.74;88.20;96942.27;4105327;85;21183;-91
2021/01/24 09:47:13;;;;;;;31.82;14.73;;;;;;;2.70;88.54;96940.88;4114139;85;21512;-91
2021/01/24 09:53:15;;;;;;;29.18;15.83;;;;;;;2.62;88.01;96953.33;4101192;85;21212;-90
2021/01/24 09:59:16;;;;;;;30.37;14.83;;;;;;;2.57;88.30;96961.80;4092531;85;21209;-91
2021/01/24 10:05:18;;;;;;;23.35;13.10;;;;;;;2.62;88.18;96968.19;4101824;85;21512;-91
2021/01/24 10:11:21;;;;;;;25.62;11.83;;;;;;;2.68;88.17;96958.59;4111071;85;21199;-90
2021/01/24 10:17:23;;;;;;;25.68;12.65;;;;;;;2.82;88.02;96959.50;4104617;85;21700;-91
2021/01/24 10:23:25;;;;;;;64.10;23.22;;;;;;;3.01;87.51;96959.28;4101716;85;21220;-91
2021/01/24 10:29:27;;;;;;;36.38;15.88;;;;;;;3.15;87.34;96966.72;4088740;85;21172;-90
2021/01/24 10:35:29;;;;;;;44.83;19.95;;;;;;;3.15;87.20;96980.23;4066992;86;21181;-93
2021/01/24 10:41:30;;;;;;;58.35;26.68;;;;;;;3.07;86.66;96974.00;4076342;86;21616;-91
2021/01/24 10:47:45;;;;;;;72.95;32.10;;;;;;;3.05;86.77;96979.59;4072307;86;21245;-91
2021/01/24 10:53:47;;;;;;;53.52;24.43;;;;;;;3.15;86.85;96988.34;4068552;86;21311;-92
2021/01/24 10:59:48;;;;;;;49.03;22.67;;;;;;;3.15;86.48;96982.94;4066669;86;21317;-92
2021/01/24 11:05:50;;;;;;;63.85;27.22;;;;;;;3.30;86.60;97002.20;4071098;86;21156;-92
2021/01/24 11:11:52;;;;;;;56.65;26.23;;;;;;;3.42;86.37;97005.94;4057856;86;21168;-91
2021/01/24 11:17:56;;;;;;;61.28;28.75;;;;;;;3.54;86.46;97015.70;4032627;86;21720;-92
2021/01/24 11:23:57;;;;;;;54.48;25.80;;;;;;;3.62;85.78;97024.06;4052561;86;21144;-91
2021/01/24 11:29:59;;;;;;;54.70;24.30;;;;;;;3.50;85.96;97025.70;4048770;87;21645;-92
2021/01/24 11:36:00;;;;;;;55.05;25.45;;;;;;;3.60;86.10;97028.50;4048116;87;21366;-93
2021/01/24 11:42:03;;;;;;;50.17;23.42;;;;;;;3.66;86.01;97024.85;4049203;86;21911;-92
2021/01/24 11:48:06;;;;;;;54.60;25.68;;;;;;;3.89;85.84;97019.39;4047718;86;21243;-92
2021/01/24 11:54:07;;;;;;;51.53;22.90;;;;;;;4.09;85.35;97019.86;4049283;87;21204;-92
2021/01/24 12:00:10;;;;;;;50.40;22.10;;;;;;;3.99;84.78;97021.95;4048750;86;21240;-92
2021/01/24 12:06:12;;;;;;;43.50;21.73;;;;;;;3.84;84.71;97036.55;4049922;86;21713;-92
2021/01/24 12:12:14;;;;;;;43.87;20.88;;;;;;;3.74;84.71;97046.75;4047625;86;21352;-91
2021/01/24 12:18:15;;;;;;;46.53;22.00;;;;;;;3.72;84.59;97049.05;4047596;86;21196;-91
2021/01/24 12:24:16;;;;;;;51.48;21.82;;;;;;;3.68;84.65;97056.38;4047186;86;21216;-91
2021/01/24 12:30:19;;;;;;;47.40;21.68;;;;;;;3.58;84.65;97056.50;4049337;85;21330;-90
2021/01/24 12:36:20;;;;;;;53.52;23.38;;;;;;;3.64;84.80;97049.58;4050230;86;21148;-91
2021/01/24 12:42:22;;;;;;;46.35;22.00;;;;;;;3.72;84.54;97047.70;4050731;86;21181;-89
2021/01/24 12:48:24;;;;;;;48.90;22.90;;;;;;;3.75;84.24;97054.48;4047057;86;21195;-89
2021/01/24 12:54:25;;;;;;;41.15;19.92;;;;;;;3.66;84.16;97060.81;4047831;86;21187;-87
2021/01/24 13:00:27;;;;;;;35.78;17.45;;;;;;;3.51;84.17;97063.79;4047838;86;21174;-88
2021/01/24 13:06:28;;;;;;;34.10;18.20;;;;;;;3.45;84.13;97062.56;4050250;86;21165;-87
2021/01/24 13:12:30;;;;;;;38.50;18.80;;;;;;;3.42;84.09;97052.48;4051621;86;21217;-89
2021/01/24 13:18:31;;;;;;;36.68;18.07;;;;;;;3.51;84.36;97055.67;4049057;86;21172;-88
2021/01/24 13:24:33;;;;;;;34.73;17.92;;;;;;;3.65;84.34;97059.84;4050594;86;21244;-89
2021/01/24 13:30:34;;;;;;;32.70;16.62;;;;;;;3.65;84.13;97069.30;4045488;86;21250;-90
2021/01/24 13:36:37;;;;;;;38.58;18.48;;;;;;;3.58;83.99;97077.36;4047921;86;21176;-91
2021/01/24 13:42:38;;;;;;;37.65;17.73;;;;;;;3.53;83.99;97081.75;4046455;86;21204;-88
2021/01/24 13:48:40;;;;;;;42.23;20.23;;;;;;;3.47;84.05;97097.56;4053101;86;21181;-93
2021/01/24 13:54:42;;;;;;;35.92;18.82;;;;;;;3.38;84.24;97087.64;4061069;86;21350;-87
2021/01/24 14:00:44;;;;;;;43.55;19.70;;;;;;;3.39;84.24;97085.70;4052143;86;21669;-88
2021/01/24 14:06:45;;;;;;;34.13;17.70;;;;;;;3.40;84.17;97096.73;4049119;86;21213;-89
2021/01/24 14:12:47;;;;;;;31.75;17.17;;;;;;;3.42;84.39;97101.17;3975327;87;21699;-91
2021/01/24 14:18:49;;;;;;;41.40;20.12;;;;;;;3.43;84.29;97105.45;4046997;86;21666;-88
